Wakefield, Canada
Current Conditions -  °F | °C
As of 9:00 PM on Saturday 20 Dec 2014 (Local Time) from CYND Reporting Station
Clear Clear  
Wind Chill:   Ceiling: Unl
Heat Index:   Visibility: 15mi
Dew Point:   Wind: 2mph
Humidity: 92%   Direction: 350°N
Pressure: 30.35"   Gusts: NA
Location:  45.63°N, 75.93°W
Report Text: CYND 210200Z 35002KT 15SM SKC M14/M15 A3035 RMK LAST OBS/NEXT 211200 UTC SLP285
Loading
Personal Weather Stations






























Interactive Weather Map New forecast layout! Learn more

10-Day Weather Forecast

Advertisements
Track Severe Weather on mobile